Main page
METAR-TAF:

METAR-TAF

Airports :

Norwich, England

Norwich Airport

latitude: 52-38N, longitude: 001-18E, elevation: 14 m

Current weather observation

The report was made 23 minutes ago, at 18:20 UTC
Wind 7 kt from the Northeast
Temperature 7°C
Humidity 87%
Pressure 1026 hPa
Visibility 10 km or more
no clouds below 1500 m and no cumulonimbus

METAR: EGSH 261820Z 05007KT CAVOK 07/05 Q1026 NOSIG

Time: 19:43 (18:43 UTC)

Forecast

The report was made 1 hour and 41 minutes ago, at 17:02 UTC
Forecast valid from 26 at 18 UTC to 26 at 24 UTC
Wind 9 kt from the East/Northeast
Visibility 10 km or more
no clouds below 1500 m and no cumulonimbus
Becoming
from 26 at 21 UTC to 26 at 24 UTC
Visibility: 5000 m
haze
Probability 30% :
Temporary
from 26 at 23 UTC to 26 at 24 UTC
Visibility: 3000 m
Broken clouds at a height of 400 ft
mist

TAF: EGSH 261702Z 2618/2624 06009KT CAVOK BECMG 2621/2624 5000 HZ PROB30 TEMPO 2623/2624 3000 BR BKN004

Weather observations and forecasts of more than 4000 airports (METAR and TAF reports).

The available stations are represented by yellow and red dots on the map.

Hover mouse over dot to see the name of the station.

Then click to see weather observations and forecasts.

To change the map : click on the green buttons with a black cross to zoom in, on the green button with a dash to zoom out, or on the green arrows for adjacent maps.


METAR-TAF: